createdAt,value
2019-03-28T00:01:20.099Z,68.31
2019-03-28T00:03:47.147Z,68.21
2019-03-28T00:06:14.189Z,68.02
2019-03-28T00:08:41.242Z,67.85
2019-03-28T00:11:08.635Z,67.76
2019-03-28T00:13:35.688Z,67.71
2019-03-28T00:16:02.767Z,67.59
2019-03-28T00:18:30.082Z,67.43
2019-03-28T00:20:57.438Z,66.78
2019-03-28T00:23:24.791Z,66.49
2019-03-28T00:25:53.046Z,66.19
2019-03-28T00:28:20.101Z,66.07
2019-03-28T00:30:47.143Z,65.90
2019-03-28T00:33:14.199Z,66.01
2019-03-28T00:35:41.312Z,66.04
2019-03-28T00:38:08.386Z,65.64
2019-03-28T00:40:35.423Z,65.38
2019-03-28T00:43:02.551Z,65.20
2019-03-28T00:45:29.761Z,64.98
2019-03-28T00:47:56.806Z,64.73
2019-03-28T00:50:23.865Z,64.56
2019-03-28T00:52:50.902Z,64.53
2019-03-28T00:55:18.277Z,63.99
2019-03-28T00:57:45.621Z,63.98
2019-03-28T01:00:12.972Z,63.69
2019-03-28T01:02:40.012Z,63.77
2019-03-28T01:05:07.064Z,63.93
2019-03-28T01:07:34.426Z,63.96
2019-03-28T01:10:01.778Z,64.40
2019-03-28T01:12:28.813Z,65.26
2019-03-28T01:14:56.138Z,65.88
2019-03-28T01:17:23.177Z,66.34
2019-03-28T01:19:50.605Z,66.66
2019-03-28T01:22:17.645Z,66.36
2019-03-28T01:24:45.009Z,66.94
2019-03-28T01:27:12.042Z,67.14
2019-03-28T01:29:39.092Z,67.49
2019-03-28T01:32:06.131Z,67.47
2019-03-28T01:34:33.357Z,67.42
2019-03-28T01:37:00.758Z,67.62
2019-03-28T01:39:27.877Z,67.89
2019-03-28T01:41:54.923Z,67.99
2019-03-28T01:44:22.294Z,68.08
2019-03-28T01:46:49.384Z,68.13
2019-03-28T01:49:17.370Z,68.16
2019-03-28T01:51:44.410Z,67.99
2019-03-28T01:54:11.445Z,67.93
2019-03-28T01:56:38.813Z,68.16
2019-03-28T01:59:06.171Z,68.79
2019-03-28T02:01:33.219Z,68.71
2019-03-28T02:04:00.573Z,68.59
2019-03-28T02:06:27.626Z,68.31
2019-03-28T02:08:54.974Z,67.97
2019-03-28T02:11:22.328Z,68.06
2019-03-28T02:13:50.429Z,68.34
2019-03-28T02:16:17.755Z,68.32
2019-03-28T02:18:44.794Z,67.99
2019-03-28T02:21:12.094Z,67.89
2019-03-28T02:23:39.130Z,67.44
2019-03-28T02:26:06.462Z,67.81
2019-03-28T02:28:33.506Z,66.91
2019-03-28T02:31:00.862Z,66.77
2019-03-28T02:33:28.237Z,66.08
2019-03-28T02:35:55.284Z,66.74
2019-03-28T02:38:22.565Z,66.81
2019-03-28T02:40:50.694Z,67.17
2019-03-28T02:43:18.055Z,67.06
2019-03-28T02:45:46.432Z,66.87
2019-03-28T02:48:13.788Z,67.09
2019-03-28T02:50:41.139Z,67.40
2019-03-28T02:53:08.495Z,67.43
2019-03-28T02:55:35.546Z,67.05
2019-03-28T02:58:02.587Z,66.77
2019-03-28T03:00:29.638Z,66.70
2019-03-28T03:02:56.739Z,67.26
2019-03-28T03:05:23.781Z,68.00
2019-03-28T03:07:50.810Z,68.17
2019-03-28T03:10:17.893Z,68.88
2019-03-28T03:12:45.205Z,69.14
2019-03-28T03:15:12.260Z,69.46
2019-03-28T03:17:39.297Z,68.42
2019-03-28T03:20:06.327Z,68.77
2019-03-28T03:22:33.682Z,68.26
2019-03-28T03:25:00.713Z,68.54
2019-03-28T03:27:27.778Z,69.27
2019-03-28T03:29:54.794Z,69.93
2019-03-28T03:32:22.096Z,70.21
2019-03-28T03:34:49.156Z,70.53
2019-03-28T03:37:16.480Z,70.81
2019-03-28T03:39:43.840Z,70.93
2019-03-28T03:42:11.853Z,70.98
2019-03-28T03:44:38.969Z,71.06
2019-03-28T03:47:06.314Z,71.35
2019-03-28T03:49:33.415Z,71.74
2019-03-28T03:52:00.471Z,71.94
2019-03-28T03:54:27.496Z,72.40
2019-03-28T03:56:54.816Z,72.86
2019-03-28T03:59:21.858Z,73.10
2019-03-28T04:01:49.234Z,73.70
2019-03-28T04:04:16.572Z,74.09
2019-03-28T04:06:43.622Z,74.48
2019-03-28T04:09:10.917Z,74.37
2019-03-28T04:11:38.245Z,74.27
2019-03-28T04:14:05.530Z,73.39
2019-03-28T04:16:32.938Z,72.61
2019-03-28T04:19:01.209Z,71.93
2019-03-28T04:21:28.264Z,71.65
2019-03-28T04:23:55.803Z,71.84
2019-03-28T04:26:23.104Z,72.30
2019-03-28T04:28:50.426Z,73.09
2019-03-28T04:31:18.133Z,73.87
2019-03-28T04:33:45.120Z,74.35
2019-03-28T04:36:12.398Z,74.60
2019-03-28T04:38:39.445Z,74.48
2019-03-28T04:41:06.795Z,74.42
2019-03-28T04:43:34.147Z,74.40
2019-03-28T04:46:01.181Z,74.70
2019-03-28T04:48:28.497Z,75.15
2019-03-28T04:50:55.527Z,75.46
2019-03-28T04:53:23.555Z,75.98
2019-03-28T04:55:50.925Z,75.97
2019-03-28T04:58:17.975Z,75.88
2019-03-28T05:00:45.077Z,76.00
2019-03-28T05:03:12.134Z,75.77
2019-03-28T05:05:39.163Z,75.69
2019-03-28T05:08:06.577Z,75.63
2019-03-28T05:10:33.678Z,75.73
2019-03-28T05:13:00.976Z,75.61
2019-03-28T05:15:28.009Z,75.52
2019-03-28T05:17:55.377Z,75.42
2019-03-28T05:20:22.413Z,75.30
2019-03-28T05:22:49.461Z,75.13
2019-03-28T05:25:16.747Z,75.14
2019-03-28T05:27:44.085Z,74.62
2019-03-28T05:30:11.359Z,74.45
2019-03-28T05:32:38.695Z,74.09
2019-03-28T05:35:06.065Z,73.57
2019-03-28T05:37:33.111Z,73.16
2019-03-28T05:40:00.453Z,72.51
2019-03-28T05:42:27.823Z,72.10
2019-03-28T05:44:55.163Z,71.68
2019-03-28T05:47:22.518Z,71.31
2019-03-28T05:49:49.872Z,70.28
2019-03-28T05:52:16.917Z,69.65
2019-03-28T05:54:43.967Z,67.97
2019-03-28T05:57:10.998Z,66.94
2019-03-28T05:59:38.048Z,65.31
2019-03-28T06:02:05.079Z,64.41
2019-03-28T06:04:32.132Z,61.99
2019-03-28T06:06:59.512Z,59.14
2019-03-28T06:09:26.869Z,56.70
2019-03-28T06:11:54.608Z,54.61
2019-03-28T06:14:22.216Z,49.05
2019-03-28T06:16:49.546Z,47.41
2019-03-28T06:19:16.927Z,46.68
2019-03-28T06:21:43.969Z,43.42
2019-03-28T06:24:11.323Z,44.96
2019-03-28T06:26:38.610Z,42.48
2019-03-28T06:29:08.479Z,42.59
2019-03-28T06:31:34.723Z,40.20
2019-03-28T06:34:01.775Z,39.85
2019-03-28T06:36:29.105Z,40.09
2019-03-28T06:38:56.159Z,38.11
2019-03-28T06:41:23.526Z,38.45
2019-03-28T06:43:50.584Z,38.35
2019-03-28T06:46:17.910Z,38.34
2019-03-28T06:48:45.267Z,37.08
2019-03-28T06:51:12.309Z,36.73
2019-03-28T06:53:39.355Z,36.60
2019-03-28T06:56:07.636Z,35.74
2019-03-28T06:58:34.690Z,35.48
2019-03-28T07:01:01.727Z,34.68
2019-03-28T07:03:29.106Z,33.71
2019-03-28T07:05:56.447Z,31.79
2019-03-28T07:08:25.363Z,31.81
2019-03-28T07:10:52.793Z,32.05
2019-03-28T07:13:19.830Z,32.27
2019-03-28T07:15:47.991Z,31.89
2019-03-28T07:18:15.288Z,32.40
2019-03-28T07:20:42.342Z,31.57
2019-03-28T07:23:09.379Z,30.84
2019-03-28T07:25:36.743Z,31.46
2019-03-28T07:28:06.333Z,31.83
2019-03-28T07:30:33.169Z,31.26
2019-03-28T07:33:00.207Z,32.53
2019-03-28T07:35:27.257Z,32.26
2019-03-28T07:37:54.298Z,32.58
2019-03-28T07:40:21.352Z,32.80
2019-03-28T07:42:48.384Z,31.58
2019-03-28T07:45:15.439Z,31.35
2019-03-28T07:47:42.468Z,31.25
2019-03-28T07:50:09.868Z,30.19
2019-03-28T07:52:37.222Z,30.82
2019-03-28T07:55:04.409Z,30.79
2019-03-28T07:57:32.087Z,31.19
2019-03-28T08:00:04.529Z,31.72
2019-03-28T08:02:29.526Z,33.86
2019-03-28T08:04:56.860Z,32.70
2019-03-28T08:07:23.894Z,33.22
2019-03-28T08:09:51.259Z,34.24
2019-03-28T08:12:23.041Z,32.91
2019-03-28T08:14:47.365Z,33.88
2019-03-28T08:17:14.396Z,32.43
2019-03-28T08:19:42.421Z,33.21
2019-03-28T08:22:09.460Z,33.42
2019-03-28T08:24:36.494Z,32.50
2019-03-28T08:27:03.875Z,32.62
2019-03-28T08:29:30.915Z,30.90
2019-03-28T08:31:58.278Z,31.59
2019-03-28T08:34:25.317Z,31.10
2019-03-28T08:36:52.679Z,31.25
2019-03-28T08:39:20.112Z,31.24
2019-03-28T08:41:48.643Z,31.44
2019-03-28T08:44:15.930Z,31.51
2019-03-28T08:46:42.984Z,32.01
2019-03-28T08:49:10.014Z,31.61
2019-03-28T08:51:37.063Z,32.28
2019-03-28T08:54:04.370Z,33.54
2019-03-28T08:56:31.424Z,33.53
2019-03-28T08:58:58.776Z,33.43
2019-03-28T09:01:25.825Z,33.51
2019-03-28T09:03:53.297Z,33.53
2019-03-28T09:06:20.639Z,34.00
2019-03-28T09:08:47.668Z,34.18
2019-03-28T09:11:15.958Z,33.36
2019-03-28T09:13:42.998Z,33.33
2019-03-28T09:16:10.091Z,32.28
2019-03-28T09:18:37.124Z,32.94
2019-03-28T09:21:04.431Z,32.57
2019-03-28T09:23:31.811Z,32.26
2019-03-28T09:25:59.933Z,32.30
2019-03-28T09:28:26.968Z,31.71
2019-03-28T09:30:54.032Z,31.42
2019-03-28T09:33:21.334Z,31.70
2019-03-28T09:35:48.477Z,31.65
2019-03-28T09:38:15.736Z,31.04
2019-03-28T09:40:43.109Z,30.73
2019-03-28T09:43:10.147Z,31.33
2019-03-28T09:45:37.504Z,32.32
2019-03-28T09:48:04.534Z,29.95
2019-03-28T09:50:31.898Z,31.10
2019-03-28T09:52:59.275Z,31.72
2019-03-28T09:55:26.307Z,30.69
2019-03-28T09:57:53.357Z,31.12
2019-03-28T10:00:20.398Z,32.01
2019-03-28T10:02:47.769Z,31.88
2019-03-28T10:05:14.804Z,30.46
2019-03-28T10:07:42.153Z,31.79
2019-03-28T10:10:09.447Z,31.72
2019-03-28T10:12:36.523Z,32.25
2019-03-28T10:15:03.567Z,32.10
2019-03-28T10:17:30.962Z,30.85
2019-03-28T10:19:58.318Z,31.48
2019-03-28T10:22:25.680Z,30.46
2019-03-28T10:24:52.726Z,30.82
2019-03-28T10:27:20.080Z,32.35
2019-03-28T10:29:47.199Z,31.71
2019-03-28T10:32:14.572Z,30.51
2019-03-28T10:34:41.604Z,31.94
2019-03-28T10:37:08.695Z,33.14
2019-03-28T10:39:36.061Z,33.43
2019-03-28T10:42:03.154Z,33.77
2019-03-28T10:44:30.569Z,33.44
2019-03-28T10:46:57.930Z,32.36
2019-03-28T10:49:25.280Z,31.86
2019-03-28T10:51:53.763Z,31.56
2019-03-28T10:54:21.068Z,32.16
2019-03-28T10:56:52.182Z,30.94
2019-03-28T10:59:23.630Z,31.48
2019-03-28T11:01:50.492Z,28.92
2019-03-28T11:04:15.859Z,30.85
2019-03-28T11:06:43.316Z,30.00
2019-03-28T11:09:10.388Z,31.46
2019-03-28T11:11:37.474Z,31.67
2019-03-28T11:14:04.550Z,32.18
2019-03-28T11:16:31.923Z,34.28
2019-03-28T11:18:58.995Z,34.76
2019-03-28T11:21:26.426Z,35.94
2019-03-28T11:23:53.889Z,33.15
2019-03-28T11:26:21.012Z,33.41
2019-03-28T11:28:48.413Z,34.16
2019-03-28T11:31:15.845Z,34.39
2019-03-28T11:33:43.309Z,34.03
2019-03-28T11:36:10.659Z,34.22
2019-03-28T11:38:37.745Z,32.49
2019-03-28T11:41:05.162Z,32.88
2019-03-28T11:43:32.261Z,33.04
2019-03-28T11:45:59.667Z,32.08
2019-03-28T11:48:27.127Z,31.30
2019-03-28T11:50:54.203Z,32.42
2019-03-28T11:53:21.292Z,33.44
2019-03-28T11:55:49.084Z,33.35
2019-03-28T11:58:16.342Z,34.19
2019-03-28T12:00:43.678Z,35.39
2019-03-28T12:03:10.771Z,35.56
2019-03-28T12:05:37.847Z,35.63
2019-03-28T12:08:04.935Z,35.81
2019-03-28T12:10:32.014Z,38.35
2019-03-28T12:12:59.449Z,39.39
2019-03-28T12:15:26.530Z,40.81
2019-03-28T12:17:53.954Z,41.33
2019-03-28T12:20:21.041Z,42.47
2019-03-28T12:22:49.515Z,42.77
2019-03-28T12:25:16.944Z,43.57
2019-03-28T12:27:44.023Z,44.79
2019-03-28T12:30:11.449Z,45.09
2019-03-28T12:32:38.933Z,45.33
2019-03-28T12:35:06.083Z,45.18
2019-03-28T12:37:34.564Z,46.03
2019-03-28T12:40:01.752Z,46.00
2019-03-28T12:42:28.842Z,44.76
2019-03-28T12:44:57.280Z,45.94
2019-03-28T12:47:24.705Z,45.11
2019-03-28T12:49:52.043Z,44.94
2019-03-28T12:52:19.117Z,44.52
2019-03-28T12:54:46.208Z,44.85
2019-03-28T12:57:14.590Z,44.17
2019-03-28T12:59:41.813Z,44.43
2019-03-28T13:02:08.888Z,44.41
2019-03-28T13:04:36.271Z,43.32
2019-03-28T13:07:03.345Z,42.17
2019-03-28T13:09:30.766Z,42.29
2019-03-28T13:11:58.147Z,41.40
2019-03-28T13:14:25.237Z,41.78
2019-03-28T13:16:52.655Z,42.64
2019-03-28T13:19:20.010Z,43.49
2019-03-28T13:21:48.466Z,45.02
2019-03-28T13:24:15.948Z,45.49
2019-03-28T13:26:43.025Z,45.64
2019-03-28T13:29:10.231Z,45.37
2019-03-28T13:31:37.364Z,43.73
2019-03-28T13:34:04.453Z,41.94
2019-03-28T13:36:31.536Z,41.33
2019-03-28T13:38:58.925Z,40.63
2019-03-28T13:41:26.113Z,42.00
2019-03-28T13:43:53.304Z,42.30
2019-03-28T13:46:20.708Z,43.48
2019-03-28T13:48:47.799Z,43.32
2019-03-28T13:51:14.871Z,44.62
2019-03-28T13:53:41.966Z,45.31
2019-03-28T13:56:09.400Z,45.23
2019-03-28T13:58:36.849Z,44.67
2019-03-28T14:01:04.006Z,45.45
2019-03-28T14:03:31.090Z,45.88
2019-03-28T14:05:58.511Z,45.82
2019-03-28T14:08:25.597Z,45.73
2019-03-28T14:10:53.007Z,46.51
2019-03-28T14:13:20.080Z,45.91
2019-03-28T14:15:48.539Z,45.95
2019-03-28T14:18:15.617Z,45.92
2019-03-28T14:20:42.927Z,45.56
2019-03-28T14:23:10.527Z,45.27
2019-03-28T14:25:37.958Z,45.75
2019-03-28T14:28:05.034Z,46.31
2019-03-28T14:30:32.465Z,46.24
2019-03-28T14:33:10.601Z,46.12
2019-03-28T14:35:29.021Z,46.56
2019-03-28T14:37:56.378Z,46.71
2019-03-28T14:40:23.854Z,46.33
2019-03-28T14:42:51.308Z,47.20
2019-03-28T14:45:18.407Z,47.37
2019-03-28T14:47:45.485Z,47.25
2019-03-28T14:50:12.692Z,47.88
2019-03-28T14:52:39.730Z,47.29
2019-03-28T14:55:07.141Z,47.42
2019-03-28T14:57:34.217Z,47.79
2019-03-28T15:00:01.309Z,47.41
2019-03-28T15:02:28.897Z,47.60
2019-03-28T15:04:56.356Z,46.76
2019-03-28T15:07:23.424Z,47.99
2019-03-28T15:09:50.887Z,48.44
2019-03-28T15:12:17.956Z,49.34
2019-03-28T15:14:45.046Z,49.72
2019-03-28T15:17:12.127Z,50.25
2019-03-28T15:19:39.217Z,50.57
2019-03-28T15:22:06.285Z,50.65
2019-03-28T15:24:33.360Z,50.53
2019-03-28T15:27:01.129Z,51.07
2019-03-28T15:29:28.599Z,51.38
2019-03-28T15:31:55.678Z,51.68
2019-03-28T15:34:22.752Z,52.22
2019-03-28T15:36:49.842Z,52.35
2019-03-28T15:39:16.917Z,52.54
2019-03-28T15:41:44.272Z,52.14
2019-03-28T15:44:11.783Z,52.49
2019-03-28T15:46:38.878Z,52.91
2019-03-28T15:49:06.290Z,52.96
2019-03-28T15:51:33.771Z,52.90
2019-03-28T15:54:01.230Z,52.57
2019-03-28T15:56:28.661Z,53.02
2019-03-28T15:58:56.046Z,53.70
2019-03-28T16:01:23.502Z,53.41
2019-03-28T16:03:53.347Z,53.72
2019-03-28T16:06:22.309Z,53.76
2019-03-28T16:08:48.843Z,54.15
2019-03-28T16:11:15.924Z,54.19
2019-03-28T16:13:43.424Z,54.02
2019-03-28T16:16:10.570Z,53.90
2019-03-28T16:18:37.657Z,53.66
2019-03-28T16:21:04.832Z,53.44
2019-03-28T16:23:31.918Z,53.63
2019-03-28T16:25:59.019Z,53.98
2019-03-28T16:28:28.152Z,54.52
2019-03-28T16:30:54.910Z,54.85
2019-03-28T16:33:21.995Z,54.92
2019-03-28T16:35:49.350Z,55.55
2019-03-28T16:38:17.794Z,55.61
2019-03-28T16:40:45.279Z,55.59
2019-03-28T16:43:12.733Z,56.02
2019-03-28T16:45:40.192Z,56.82
2019-03-28T16:48:07.624Z,57.45
2019-03-28T16:50:35.081Z,57.48
2019-03-28T16:53:02.198Z,57.56
2019-03-28T16:55:29.284Z,57.79
2019-03-28T16:57:56.762Z,58.05
2019-03-28T17:00:23.837Z,58.41
2019-03-28T17:02:51.270Z,58.81
2019-03-28T17:05:18.350Z,58.83
2019-03-28T17:07:45.752Z,59.16
2019-03-28T17:10:12.831Z,59.04
2019-03-28T17:12:40.179Z,59.11
2019-03-28T17:15:07.611Z,59.18
2019-03-28T17:17:38.316Z,59.36
2019-03-28T17:20:03.650Z,59.60
2019-03-28T17:22:31.107Z,59.67
2019-03-28T17:24:58.195Z,59.98
2019-03-28T17:27:25.291Z,60.34
2019-03-28T17:29:52.663Z,60.56
2019-03-28T17:32:20.122Z,60.53
2019-03-28T17:34:47.578Z,60.90
2019-03-28T17:37:15.033Z,61.15
2019-03-28T17:39:42.111Z,60.92
2019-03-28T17:42:10.588Z,61.34
2019-03-28T17:44:37.669Z,61.09
2019-03-28T17:47:05.072Z,61.28
2019-03-28T17:49:32.154Z,61.46
2019-03-28T17:51:59.471Z,61.40
2019-03-28T17:54:26.554Z,61.39
2019-03-28T17:56:53.713Z,61.28
2019-03-28T17:59:20.862Z,61.54
2019-03-28T18:01:48.282Z,61.93
2019-03-28T18:04:22.649Z,62.01
2019-03-28T18:06:44.268Z,62.20
2019-03-28T18:09:11.640Z,62.36
2019-03-28T18:11:39.132Z,62.77
2019-03-28T18:14:06.588Z,63.01
2019-03-28T18:16:34.223Z,63.12
2019-03-28T18:19:01.384Z,63.24
2019-03-28T18:21:29.539Z,63.44
2019-03-28T18:23:57.054Z,63.68
2019-03-28T18:26:24.171Z,63.77
2019-03-28T18:28:51.238Z,63.91
2019-03-28T18:31:18.320Z,63.85
2019-03-28T18:33:45.419Z,63.99
2019-03-28T18:36:12.496Z,63.99
2019-03-28T18:38:39.585Z,64.24
2019-03-28T18:41:06.759Z,64.25
2019-03-28T18:43:34.154Z,64.32
2019-03-28T18:46:01.591Z,64.33
2019-03-28T18:48:35.930Z,64.28
2019-03-28T18:50:57.837Z,64.42
2019-03-28T18:53:24.928Z,64.32
2019-03-28T18:55:52.345Z,64.38
2019-03-28T18:58:19.445Z,64.76
2019-03-28T19:00:48.267Z,64.69
2019-03-28T19:03:15.317Z,64.83
2019-03-28T19:05:42.684Z,64.70
2019-03-28T19:08:10.063Z,64.92
2019-03-28T19:10:37.862Z,65.05
2019-03-28T19:13:05.597Z,64.86
2019-03-28T19:15:32.663Z,64.88
2019-03-28T19:17:59.995Z,64.72
2019-03-28T19:20:28.356Z,64.92
2019-03-28T19:22:55.809Z,64.93
2019-03-28T19:25:23.266Z,65.00
2019-03-28T19:27:50.360Z,64.91
2019-03-28T19:30:17.441Z,64.92
2019-03-28T19:32:44.534Z,65.15
2019-03-28T19:35:11.604Z,65.10
2019-03-28T19:37:38.948Z,65.24
2019-03-28T19:40:07.029Z,65.25
2019-03-28T19:42:34.447Z,65.30
2019-03-28T19:45:01.544Z,65.47
2019-03-28T19:47:28.833Z,65.56
2019-03-28T19:49:55.884Z,65.61
2019-03-28T19:52:22.967Z,65.60
2019-03-28T19:54:50.074Z,65.60
2019-03-28T19:57:17.154Z,65.75
2019-03-28T19:59:44.265Z,65.71
2019-03-28T20:02:14.093Z,65.94
2019-03-28T20:04:40.461Z,66.10
2019-03-28T20:07:20.982Z,66.48
2019-03-28T20:09:36.989Z,66.76
2019-03-28T20:12:05.375Z,66.91
2019-03-28T20:14:33.029Z,66.96
2019-03-28T20:17:00.486Z,67.05
2019-03-28T20:19:28.936Z,67.31
2019-03-28T20:21:59.477Z,67.19
2019-03-28T20:24:26.206Z,67.40
2019-03-28T20:26:54.369Z,67.56
2019-03-28T20:29:21.457Z,67.66
2019-03-28T20:31:48.819Z,67.61
2019-03-28T20:34:15.910Z,67.63
2019-03-28T20:36:44.183Z,67.63
2019-03-28T20:39:11.476Z,67.96
2019-03-28T20:41:38.725Z,67.85
2019-03-28T20:44:05.819Z,67.93
2019-03-28T20:46:33.254Z,67.97
2019-03-28T20:49:00.711Z,67.98
2019-03-28T20:51:28.090Z,68.14
2019-03-28T20:53:55.531Z,68.08
2019-03-28T20:56:23.118Z,68.14
2019-03-28T20:58:50.163Z,68.15
2019-03-28T21:01:17.258Z,68.24
2019-03-28T21:03:44.331Z,68.29
2019-03-28T21:06:15.487Z,68.29
2019-03-28T21:08:40.577Z,68.40
2019-03-28T21:11:07.670Z,68.25
2019-03-28T21:13:35.356Z,68.17
2019-03-28T21:16:03.357Z,68.52
2019-03-28T21:18:30.449Z,68.48
2019-03-28T21:20:57.871Z,68.48
2019-03-28T21:23:25.216Z,68.66
2019-03-28T21:25:52.299Z,68.75
2019-03-28T21:28:19.336Z,68.70
2019-03-28T21:30:47.958Z,68.97
2019-03-28T21:33:15.741Z,69.01
2019-03-28T21:35:43.089Z,69.05
2019-03-28T21:38:10.443Z,69.03
2019-03-28T21:40:38.463Z,69.07
2019-03-28T21:43:05.504Z,69.24
2019-03-28T21:45:32.563Z,69.24
2019-03-28T21:47:59.868Z,69.32
2019-03-28T21:50:27.614Z,69.45
2019-03-28T21:52:55.005Z,69.67
2019-03-28T21:55:22.052Z,69.87
2019-03-28T21:57:49.085Z,70.30
2019-03-28T22:00:16.437Z,70.33
2019-03-28T22:02:43.472Z,70.51
2019-03-28T22:05:10.584Z,71.00
2019-03-28T22:07:37.613Z,71.32
2019-03-28T22:10:08.352Z,71.99
2019-03-28T22:12:33.746Z,72.61
2019-03-28T22:15:01.081Z,72.87
2019-03-28T22:17:28.538Z,73.46
2019-03-28T22:19:55.600Z,73.93
2019-03-28T22:22:22.618Z,73.85
2019-03-28T22:24:49.989Z,74.25
2019-03-28T22:27:17.039Z,74.54
2019-03-28T22:29:44.316Z,74.81
2019-03-28T22:32:11.961Z,75.39
2019-03-28T22:34:39.109Z,75.30
2019-03-28T22:37:06.409Z,75.39
2019-03-28T22:39:33.433Z,75.65
2019-03-28T22:42:00.775Z,75.55
2019-03-28T22:44:27.808Z,75.51
2019-03-28T22:46:55.161Z,75.45
2019-03-28T22:49:22.193Z,75.43
2019-03-28T22:51:49.561Z,75.67
2019-03-28T22:54:16.591Z,75.98
2019-03-28T22:56:43.989Z,76.01
2019-03-28T22:59:11.989Z,75.87
2019-03-28T23:01:39.129Z,75.82
2019-03-28T23:04:06.645Z,75.63
2019-03-28T23:06:33.698Z,75.63
2019-03-28T23:09:00.733Z,75.76
2019-03-28T23:11:29.399Z,75.47
2019-03-28T23:13:56.432Z,75.57
2019-03-28T23:16:23.779Z,75.61
2019-03-28T23:18:51.411Z,75.56
2019-03-28T23:21:18.542Z,75.53
2019-03-28T23:23:45.898Z,75.56
2019-03-28T23:26:13.190Z,75.69
2019-03-28T23:28:40.504Z,75.72
2019-03-28T23:31:07.625Z,75.76
2019-03-28T23:33:35.026Z,75.69
2019-03-28T23:36:02.073Z,75.47
2019-03-28T23:38:29.418Z,75.35
2019-03-28T23:40:56.768Z,75.59
2019-03-28T23:43:23.804Z,75.31
2019-03-28T23:45:50.859Z,75.24
2019-03-28T23:48:18.136Z,75.45
2019-03-28T23:50:45.170Z,75.63
2019-03-28T23:53:12.527Z,75.89
2019-03-28T23:55:39.873Z,75.97
2019-03-28T23:58:07.228Z,76.13
